sensor_id;sensor_type;location;lat;lon;timestamp;P1;durP1;ratioP1;P2;durP2;ratioP2
20173;SDS011;10246;50.620;7.232;2022-08-03T00:02:03;2.40;;;2.20;;
20173;SDS011;10246;50.620;7.232;2022-08-03T00:04:30;2.63;;;1.90;;
20173;SDS011;10246;50.620;7.232;2022-08-03T00:06:57;2.50;;;2.30;;
20173;SDS011;10246;50.620;7.232;2022-08-03T00:09:23;3.67;;;1.80;;
20173;SDS011;10246;50.620;7.232;2022-08-03T00:11:51;2.20;;;2.00;;
20173;SDS011;10246;50.620;7.232;2022-08-03T00:14:18;2.17;;;1.97;;
20173;SDS011;10246;50.620;7.232;2022-08-03T00:16:45;2.27;;;2.07;;
20173;SDS011;10246;50.620;7.232;2022-08-03T00:19:12;4.37;;;2.10;;
20173;SDS011;10246;50.620;7.232;2022-08-03T00:21:38;2.20;;;2.00;;
20173;SDS011;10246;50.620;7.232;2022-08-03T00:24:05;2.43;;;2.20;;
20173;SDS011;10246;50.620;7.232;2022-08-03T00:26:32;2.73;;;2.50;;
20173;SDS011;10246;50.620;7.232;2022-08-03T00:29:00;2.17;;;1.97;;
20173;SDS011;10246;50.620;7.232;2022-08-03T00:31:27;2.10;;;1.90;;
20173;SDS011;10246;50.620;7.232;2022-08-03T00:33:53;2.10;;;1.90;;
20173;SDS011;10246;50.620;7.232;2022-08-03T00:36:20;2.20;;;2.00;;
20173;SDS011;10246;50.620;7.232;2022-08-03T00:38:47;2.10;;;1.90;;
20173;SDS011;10246;50.620;7.232;2022-08-03T00:41:14;2.73;;;1.90;;
20173;SDS011;10246;50.620;7.232;2022-08-03T00:43:41;2.20;;;2.00;;
20173;SDS011;10246;50.620;7.232;2022-08-03T00:46:10;3.27;;;2.00;;
20173;SDS011;10246;50.620;7.232;2022-08-03T00:48:37;2.20;;;2.00;;
20173;SDS011;10246;50.620;7.232;2022-08-03T00:51:04;2.27;;;2.07;;
20173;SDS011;10246;50.620;7.232;2022-08-03T00:53:31;2.33;;;2.10;;
20173;SDS011;10246;50.620;7.232;2022-08-03T00:56:00;2.30;;;2.10;;
20173;SDS011;10246;50.620;7.232;2022-08-03T00:58:27;2.67;;;2.20;;
20173;SDS011;10246;50.620;7.232;2022-08-03T01:00:54;2.30;;;1.90;;
20173;SDS011;10246;50.620;7.232;2022-08-03T01:03:22;2.67;;;2.47;;
20173;SDS011;10246;50.620;7.232;2022-08-03T01:05:51;2.57;;;2.30;;
20173;SDS011;10246;50.620;7.232;2022-08-03T01:08:30;2.33;;;2.13;;
20173;SDS011;10246;50.620;7.232;2022-08-03T01:11:07;2.30;;;2.10;;
20173;SDS011;10246;50.620;7.232;2022-08-03T01:13:40;2.00;;;1.90;;
20173;SDS011;10246;50.620;7.232;2022-08-03T01:16:17;2.43;;;2.23;;
20173;SDS011;10246;50.620;7.232;2022-08-03T01:18:50;3.40;;;2.20;;
20173;SDS011;10246;50.620;7.232;2022-08-03T01:21:35;2.33;;;2.13;;
20173;SDS011;10246;50.620;7.232;2022-08-03T01:24:18;2.97;;;2.20;;
20173;SDS011;10246;50.620;7.232;2022-08-03T01:27:06;2.73;;;2.30;;
20173;SDS011;10246;50.620;7.232;2022-08-03T01:29:39;2.40;;;2.20;;
20173;SDS011;10246;50.620;7.232;2022-08-03T01:32:17;2.37;;;2.17;;
20173;SDS011;10246;50.620;7.232;2022-08-03T01:34:47;2.50;;;2.30;;
20173;SDS011;10246;50.620;7.232;2022-08-03T01:37:20;2.40;;;2.13;;
20173;SDS011;10246;50.620;7.232;2022-08-03T01:39:51;2.63;;;2.20;;
20173;SDS011;10246;50.620;7.232;2022-08-03T01:42:22;2.40;;;2.20;;
20173;SDS011;10246;50.620;7.232;2022-08-03T01:44:51;2.50;;;2.30;;
20173;SDS011;10246;50.620;7.232;2022-08-03T01:47:20;2.47;;;2.27;;
20173;SDS011;10246;50.620;7.232;2022-08-03T01:49:49;3.00;;;2.23;;
20173;SDS011;10246;50.620;7.232;2022-08-03T01:52:17;2.80;;;2.33;;
20173;SDS011;10246;50.620;7.232;2022-08-03T01:54:45;2.90;;;2.07;;
20173;SDS011;10246;50.620;7.232;2022-08-03T01:57:15;2.33;;;2.13;;
20173;SDS011;10246;50.620;7.232;2022-08-03T01:59:44;2.70;;;2.43;;
20173;SDS011;10246;50.620;7.232;2022-08-03T02:02:15;2.53;;;2.20;;
20173;SDS011;10246;50.620;7.232;2022-08-03T02:04:43;2.47;;;2.20;;
20173;SDS011;10246;50.620;7.232;2022-08-03T02:07:12;3.03;;;2.17;;
20173;SDS011;10246;50.620;7.232;2022-08-03T02:09:42;2.87;;;2.57;;
20173;SDS011;10246;50.620;7.232;2022-08-03T02:12:11;3.73;;;2.00;;
20173;SDS011;10246;50.620;7.232;2022-08-03T02:14:39;2.50;;;2.30;;
20173;SDS011;10246;50.620;7.232;2022-08-03T02:17:08;4.67;;;2.40;;
20173;SDS011;10246;50.620;7.232;2022-08-03T02:19:36;3.63;;;2.20;;
20173;SDS011;10246;50.620;7.232;2022-08-03T02:22:06;3.33;;;2.63;;
20173;SDS011;10246;50.620;7.232;2022-08-03T02:24:35;3.20;;;2.50;;
20173;SDS011;10246;50.620;7.232;2022-08-03T02:27:02;3.40;;;2.40;;
20173;SDS011;10246;50.620;7.232;2022-08-03T02:29:33;2.70;;;2.50;;
20173;SDS011;10246;50.620;7.232;2022-08-03T02:32:03;4.07;;;2.60;;
20173;SDS011;10246;50.620;7.232;2022-08-03T02:34:32;3.07;;;2.07;;
20173;SDS011;10246;50.620;7.232;2022-08-03T02:37:02;2.60;;;2.40;;
20173;SDS011;10246;50.620;7.232;2022-08-03T02:39:31;2.57;;;2.37;;
20173;SDS011;10246;50.620;7.232;2022-08-03T02:42:01;3.53;;;2.17;;
20173;SDS011;10246;50.620;7.232;2022-08-03T02:44:29;2.90;;;2.17;;
20173;SDS011;10246;50.620;7.232;2022-08-03T02:46:59;3.17;;;2.53;;
20173;SDS011;10246;50.620;7.232;2022-08-03T02:49:29;3.23;;;2.07;;
20173;SDS011;10246;50.620;7.232;2022-08-03T02:51:57;3.47;;;2.30;;
20173;SDS011;10246;50.620;7.232;2022-08-03T02:54:26;3.93;;;2.40;;
20173;SDS011;10246;50.620;7.232;2022-08-03T02:56:56;2.30;;;2.10;;
20173;SDS011;10246;50.620;7.232;2022-08-03T02:59:23;2.60;;;2.40;;
20173;SDS011;10246;50.620;7.232;2022-08-03T03:01:53;2.60;;;2.40;;
20173;SDS011;10246;50.620;7.232;2022-08-03T03:04:20;2.50;;;2.30;;
20173;SDS011;10246;50.620;7.232;2022-08-03T03:06:48;2.40;;;2.20;;
20173;SDS011;10246;50.620;7.232;2022-08-03T03:09:16;2.73;;;2.30;;
20173;SDS011;10246;50.620;7.232;2022-08-03T03:11:45;2.60;;;2.40;;
20173;SDS011;10246;50.620;7.232;2022-08-03T03:14:15;3.17;;;2.50;;
20173;SDS011;10246;50.620;7.232;2022-08-03T03:16:43;3.70;;;2.23;;
20173;SDS011;10246;50.620;7.232;2022-08-03T03:19:12;2.30;;;2.10;;
20173;SDS011;10246;50.620;7.232;2022-08-03T03:21:40;2.20;;;2.00;;
20173;SDS011;10246;50.620;7.232;2022-08-03T03:24:08;3.13;;;2.50;;
20173;SDS011;10246;50.620;7.232;2022-08-03T03:26:36;2.60;;;2.30;;
20173;SDS011;10246;50.620;7.232;2022-08-03T03:29:05;2.57;;;2.37;;
20173;SDS011;10246;50.620;7.232;2022-08-03T03:31:33;4.27;;;2.47;;
20173;SDS011;10246;50.620;7.232;2022-08-03T03:34:00;2.70;;;2.50;;
20173;SDS011;10246;50.620;7.232;2022-08-03T03:36:27;3.37;;;2.13;;
20173;SDS011;10246;50.620;7.232;2022-08-03T03:38:54;2.30;;;2.10;;
20173;SDS011;10246;50.620;7.232;2022-08-03T03:41:22;3.00;;;2.10;;
20173;SDS011;10246;50.620;7.232;2022-08-03T03:43:49;3.17;;;2.60;;
20173;SDS011;10246;50.620;7.232;2022-08-03T03:46:17;2.73;;;2.47;;
20173;SDS011;10246;50.620;7.232;2022-08-03T03:48:44;3.03;;;2.73;;
20173;SDS011;10246;50.620;7.232;2022-08-03T03:51:10;2.87;;;2.63;;
20173;SDS011;10246;50.620;7.232;2022-08-03T03:53:38;2.50;;;2.30;;
20173;SDS011;10246;50.620;7.232;2022-08-03T03:56:04;2.60;;;2.40;;
20173;SDS011;10246;50.620;7.232;2022-08-03T03:58:31;2.67;;;2.20;;
20173;SDS011;10246;50.620;7.232;2022-08-03T04:00:58;3.07;;;2.50;;
20173;SDS011;10246;50.620;7.232;2022-08-03T04:03:27;2.43;;;2.23;;
20173;SDS011;10246;50.620;7.232;2022-08-03T04:05:53;7.60;;;2.47;;
20173;SDS011;10246;50.620;7.232;2022-08-03T04:08:38;2.77;;;2.33;;
20173;SDS011;10246;50.620;7.232;2022-08-03T04:11:23;2.37;;;2.17;;
20173;SDS011;10246;50.620;7.232;2022-08-03T04:13:54;2.30;;;2.07;;
20173;SDS011;10246;50.620;7.232;2022-08-03T04:16:24;2.57;;;2.00;;
20173;SDS011;10246;50.620;7.232;2022-08-03T04:18:56;2.93;;;2.17;;
20173;SDS011;10246;50.620;7.232;2022-08-03T04:21:27;2.57;;;2.37;;
20173;SDS011;10246;50.620;7.232;2022-08-03T04:23:56;3.30;;;2.67;;
20173;SDS011;10246;50.620;7.232;2022-08-03T04:26:27;2.80;;;2.50;;
20173;SDS011;10246;50.620;7.232;2022-08-03T04:29:00;3.07;;;2.50;;
20173;SDS011;10246;50.620;7.232;2022-08-03T04:31:29;3.23;;;2.67;;
20173;SDS011;10246;50.620;7.232;2022-08-03T04:33:57;2.67;;;2.47;;
20173;SDS011;10246;50.620;7.232;2022-08-03T04:36:25;2.90;;;2.60;;
20173;SDS011;10246;50.620;7.232;2022-08-03T04:38:59;2.50;;;2.30;;
20173;SDS011;10246;50.620;7.232;2022-08-03T04:41:27;2.40;;;2.20;;
20173;SDS011;10246;50.620;7.232;2022-08-03T04:43:56;2.40;;;2.13;;
20173;SDS011;10246;50.620;7.232;2022-08-03T04:46:25;2.50;;;2.30;;
20173;SDS011;10246;50.620;7.232;2022-08-03T04:48:54;3.17;;;2.70;;
20173;SDS011;10246;50.620;7.232;2022-08-03T04:51:22;4.83;;;2.27;;
20173;SDS011;10246;50.620;7.232;2022-08-03T04:53:50;2.80;;;2.60;;
20173;SDS011;10246;50.620;7.232;2022-08-03T04:56:17;2.97;;;2.70;;
20173;SDS011;10246;50.620;7.232;2022-08-03T04:58:44;4.40;;;3.33;;
20173;SDS011;10246;50.620;7.232;2022-08-03T05:01:11;3.10;;;2.70;;
20173;SDS011;10246;50.620;7.232;2022-08-03T05:03:37;3.00;;;2.70;;
20173;SDS011;10246;50.620;7.232;2022-08-03T05:06:04;3.00;;;2.70;;
20173;SDS011;10246;50.620;7.232;2022-08-03T05:08:32;2.80;;;2.50;;
20173;SDS011;10246;50.620;7.232;2022-08-03T05:10:59;2.70;;;2.50;;
20173;SDS011;10246;50.620;7.232;2022-08-03T05:13:26;2.60;;;2.40;;
20173;SDS011;10246;50.620;7.232;2022-08-03T05:15:53;2.90;;;2.67;;
20173;SDS011;10246;50.620;7.232;2022-08-03T05:18:19;3.43;;;3.00;;
20173;SDS011;10246;50.620;7.232;2022-08-03T05:20:46;3.50;;;2.87;;
20173;SDS011;10246;50.620;7.232;2022-08-03T05:23:13;3.30;;;3.00;;
20173;SDS011;10246;50.620;7.232;2022-08-03T05:25:41;3.17;;;2.63;;
20173;SDS011;10246;50.620;7.232;2022-08-03T05:28:08;2.60;;;2.40;;
20173;SDS011;10246;50.620;7.232;2022-08-03T05:30:35;3.33;;;2.60;;
20173;SDS011;10246;50.620;7.232;2022-08-03T05:33:02;2.93;;;2.63;;
20173;SDS011;10246;50.620;7.232;2022-08-03T05:35:29;2.70;;;2.50;;
20173;SDS011;10246;50.620;7.232;2022-08-03T05:37:56;3.20;;;2.90;;
20173;SDS011;10246;50.620;7.232;2022-08-03T05:40:23;2.80;;;2.60;;
20173;SDS011;10246;50.620;7.232;2022-08-03T05:42:51;3.30;;;3.00;;
20173;SDS011;10246;50.620;7.232;2022-08-03T05:45:18;3.43;;;3.00;;
20173;SDS011;10246;50.620;7.232;2022-08-03T05:47:45;3.13;;;2.80;;
20173;SDS011;10246;50.620;7.232;2022-08-03T05:50:12;4.30;;;3.40;;
20173;SDS011;10246;50.620;7.232;2022-08-03T05:52:39;3.27;;;2.90;;
20173;SDS011;10246;50.620;7.232;2022-08-03T05:55:07;3.10;;;2.77;;
20173;SDS011;10246;50.620;7.232;2022-08-03T05:57:35;3.47;;;2.60;;
20173;SDS011;10246;50.620;7.232;2022-08-03T06:00:04;2.77;;;2.57;;
20173;SDS011;10246;50.620;7.232;2022-08-03T06:02:33;3.17;;;2.83;;
20173;SDS011;10246;50.620;7.232;2022-08-03T06:05:00;3.73;;;2.80;;
20173;SDS011;10246;50.620;7.232;2022-08-03T06:07:26;3.50;;;2.97;;
20173;SDS011;10246;50.620;7.232;2022-08-03T06:09:53;3.73;;;3.03;;
20173;SDS011;10246;50.620;7.232;2022-08-03T06:12:20;3.20;;;2.90;;
20173;SDS011;10246;50.620;7.232;2022-08-03T06:14:47;2.83;;;2.53;;
20173;SDS011;10246;50.620;7.232;2022-08-03T06:17:15;7.10;;;3.17;;
20173;SDS011;10246;50.620;7.232;2022-08-03T06:19:42;3.50;;;3.20;;
20173;SDS011;10246;50.620;7.232;2022-08-03T06:22:08;5.17;;;3.93;;
20173;SDS011;10246;50.620;7.232;2022-08-03T06:24:35;3.30;;;3.00;;
20173;SDS011;10246;50.620;7.232;2022-08-03T06:27:02;7.70;;;3.73;;
20173;SDS011;10246;50.620;7.232;2022-08-03T06:29:29;5.17;;;3.60;;
20173;SDS011;10246;50.620;7.232;2022-08-03T06:31:55;5.13;;;4.13;;
20173;SDS011;10246;50.620;7.232;2022-08-03T06:34:24;5.20;;;3.70;;
20173;SDS011;10246;50.620;7.232;2022-08-03T06:36:50;3.70;;;3.40;;
20173;SDS011;10246;50.620;7.232;2022-08-03T06:39:18;3.57;;;3.00;;
20173;SDS011;10246;50.620;7.232;2022-08-03T06:41:46;6.60;;;3.70;;
20173;SDS011;10246;50.620;7.232;2022-08-03T06:44:12;6.30;;;3.67;;
20173;SDS011;10246;50.620;7.232;2022-08-03T06:46:39;4.30;;;3.50;;
20173;SDS011;10246;50.620;7.232;2022-08-03T06:49:07;4.10;;;3.43;;
20173;SDS011;10246;50.620;7.232;2022-08-03T06:51:35;5.03;;;3.40;;
20173;SDS011;10246;50.620;7.232;2022-08-03T06:54:02;5.00;;;3.17;;
20173;SDS011;10246;50.620;7.232;2022-08-03T06:56:28;6.43;;;3.23;;
20173;SDS011;10246;50.620;7.232;2022-08-03T06:58:55;6.23;;;3.63;;
20173;SDS011;10246;50.620;7.232;2022-08-03T07:01:22;3.93;;;3.27;;
20173;SDS011;10246;50.620;7.232;2022-08-03T07:03:49;3.50;;;3.13;;
20173;SDS011;10246;50.620;7.232;2022-08-03T07:06:15;4.77;;;2.80;;
20173;SDS011;10246;50.620;7.232;2022-08-03T07:08:43;3.20;;;2.90;;
20173;SDS011;10246;50.620;7.232;2022-08-03T07:11:10;3.83;;;3.30;;
20173;SDS011;10246;50.620;7.232;2022-08-03T07:13:37;3.78;;;3.10;;
20173;SDS011;10246;50.620;7.232;2022-08-03T07:16:05;3.33;;;3.00;;
20173;SDS011;10246;50.620;7.232;2022-08-03T07:18:31;5.67;;;2.60;;
20173;SDS011;10246;50.620;7.232;2022-08-03T07:20:58;3.28;;;2.80;;
20173;SDS011;10246;50.620;7.232;2022-08-03T07:23:25;2.78;;;2.47;;
20173;SDS011;10246;50.620;7.232;2022-08-03T07:25:53;3.80;;;2.38;;
20173;SDS011;10246;50.620;7.232;2022-08-03T07:28:20;3.95;;;2.83;;
20173;SDS011;10246;50.620;7.232;2022-08-03T07:30:47;4.35;;;3.17;;
20173;SDS011;10246;50.620;7.232;2022-08-03T07:33:14;3.45;;;3.05;;
20173;SDS011;10246;50.620;7.232;2022-08-03T07:35:41;4.82;;;2.80;;
20173;SDS011;10246;50.620;7.232;2022-08-03T07:38:08;3.10;;;2.70;;
20173;SDS011;10246;50.620;7.232;2022-08-03T07:40:34;3.53;;;2.90;;
20173;SDS011;10246;50.620;7.232;2022-08-03T07:43:02;3.85;;;2.83;;
20173;SDS011;10246;50.620;7.232;2022-08-03T07:45:29;7.65;;;3.17;;
20173;SDS011;10246;50.620;7.232;2022-08-03T07:47:56;3.42;;;2.92;;
20173;SDS011;10246;50.620;7.232;2022-08-03T07:50:23;4.80;;;2.67;;
20173;SDS011;10246;50.620;7.232;2022-08-03T07:52:51;6.10;;;3.10;;
20173;SDS011;10246;50.620;7.232;2022-08-03T07:55:20;3.47;;;2.60;;
20173;SDS011;10246;50.620;7.232;2022-08-03T07:57:58;3.58;;;2.63;;
20173;SDS011;10246;50.620;7.232;2022-08-03T08:00:26;2.70;;;2.25;;
20173;SDS011;10246;50.620;7.232;2022-08-03T08:02:53;5.07;;;2.75;;
20173;SDS011;10246;50.620;7.232;2022-08-03T08:05:20;4.40;;;2.90;;
20173;SDS011;10246;50.620;7.232;2022-08-03T08:07:47;3.42;;;2.50;;
20173;SDS011;10246;50.620;7.232;2022-08-03T08:10:14;2.40;;;2.20;;
20173;SDS011;10246;50.620;7.232;2022-08-03T08:12:41;3.35;;;2.78;;
20173;SDS011;10246;50.620;7.232;2022-08-03T08:15:07;2.78;;;2.42;;
20173;SDS011;10246;50.620;7.232;2022-08-03T08:17:43;2.97;;;2.65;;
20173;SDS011;10246;50.620;7.232;2022-08-03T08:20:11;2.70;;;2.50;;
20173;SDS011;10246;50.620;7.232;2022-08-03T08:22:41;2.60;;;2.40;;
20173;SDS011;10246;50.620;7.232;2022-08-03T08:25:08;3.92;;;2.80;;
20173;SDS011;10246;50.620;7.232;2022-08-03T08:27:39;4.50;;;2.22;;
20173;SDS011;10246;50.620;7.232;2022-08-03T08:30:07;4.68;;;2.72;;
20173;SDS011;10246;50.620;7.232;2022-08-03T08:32:35;2.65;;;2.30;;
20173;SDS011;10246;50.620;7.232;2022-08-03T08:35:03;2.60;;;2.35;;
20173;SDS011;10246;50.620;7.232;2022-08-03T08:37:31;2.42;;;2.22;;
20173;SDS011;10246;50.620;7.232;2022-08-03T08:39:58;3.20;;;2.65;;
20173;SDS011;10246;50.620;7.232;2022-08-03T08:42:25;2.60;;;2.30;;
20173;SDS011;10246;50.620;7.232;2022-08-03T08:44:52;5.68;;;2.25;;
20173;SDS011;10246;50.620;7.232;2022-08-03T08:47:19;2.83;;;2.45;;
20173;SDS011;10246;50.620;7.232;2022-08-03T08:49:51;3.13;;;2.10;;
20173;SDS011;10246;50.620;7.232;2022-08-03T08:52:21;2.80;;;2.25;;
20173;SDS011;10246;50.620;7.232;2022-08-03T08:54:50;4.22;;;2.20;;
20173;SDS011;10246;50.620;7.232;2022-08-03T08:57:20;7.30;;;2.65;;
20173;SDS011;10246;50.620;7.232;2022-08-03T08:59:49;2.05;;;1.90;;
20173;SDS011;10246;50.620;7.232;2022-08-03T09:02:15;2.17;;;1.98;;
20173;SDS011;10246;50.620;7.232;2022-08-03T09:04:42;2.28;;;2.08;;
20173;SDS011;10246;50.620;7.232;2022-08-03T09:07:12;2.92;;;1.70;;
20173;SDS011;10246;50.620;7.232;2022-08-03T09:09:41;3.45;;;2.10;;
20173;SDS011;10246;50.620;7.232;2022-08-03T09:12:08;2.42;;;1.98;;
20173;SDS011;10246;50.620;7.232;2022-08-03T09:14:35;1.90;;;1.70;;
20173;SDS011;10246;50.620;7.232;2022-08-03T09:17:02;2.80;;;1.83;;
20173;SDS011;10246;50.620;7.232;2022-08-03T09:19:30;2.38;;;1.80;;
20173;SDS011;10246;50.620;7.232;2022-08-03T09:22:08;2.13;;;1.65;;
20173;SDS011;10246;50.620;7.232;2022-08-03T09:24:36;1.73;;;1.63;;
20173;SDS011;10246;50.620;7.232;2022-08-03T09:27:06;2.13;;;1.70;;
20173;SDS011;10246;50.620;7.232;2022-08-03T09:29:37;1.80;;;1.70;;
20173;SDS011;10246;50.620;7.232;2022-08-03T09:32:04;1.67;;;1.58;;
20173;SDS011;10246;50.620;7.232;2022-08-03T09:34:31;4.15;;;1.70;;
20173;SDS011;10246;50.620;7.232;2022-08-03T09:36:58;2.50;;;1.65;;
20173;SDS011;10246;50.620;7.232;2022-08-03T09:39:25;1.80;;;1.40;;
20173;SDS011;10246;50.620;7.232;2022-08-03T09:42:06;1.85;;;1.73;;
20173;SDS011;10246;50.620;7.232;2022-08-03T09:44:34;1.85;;;1.70;;
20173;SDS011;10246;50.620;7.232;2022-08-03T09:47:04;1.83;;;1.73;;
20173;SDS011;10246;50.620;7.232;2022-08-03T09:49:31;3.45;;;1.80;;
20173;SDS011;10246;50.620;7.232;2022-08-03T09:51:59;2.45;;;1.55;;
20173;SDS011;10246;50.620;7.232;2022-08-03T09:54:28;1.60;;;1.50;;
20173;SDS011;10246;50.620;7.232;2022-08-03T09:56:56;1.70;;;1.60;;
20173;SDS011;10246;50.620;7.232;2022-08-03T09:59:25;2.03;;;1.90;;
20173;SDS011;10246;50.620;7.232;2022-08-03T10:01:53;3.20;;;1.70;;
20173;SDS011;10246;50.620;7.232;2022-08-03T10:04:20;2.50;;;1.80;;
20173;SDS011;10246;50.620;7.232;2022-08-03T10:07:01;3.05;;;1.83;;
20173;SDS011;10246;50.620;7.232;2022-08-03T10:09:29;1.70;;;1.60;;
20173;SDS011;10246;50.620;7.232;2022-08-03T10:11:56;1.95;;;1.75;;
20173;SDS011;10246;50.620;7.232;2022-08-03T10:14:25;2.22;;;1.95;;
20173;SDS011;10246;50.620;7.232;2022-08-03T10:16:55;1.83;;;1.60;;
20173;SDS011;10246;50.620;7.232;2022-08-03T10:19:22;2.47;;;1.90;;
20173;SDS011;10246;50.620;7.232;2022-08-03T10:21:52;2.03;;;1.50;;
20173;SDS011;10246;50.620;7.232;2022-08-03T10:24:23;2.00;;;1.77;;
20173;SDS011;10246;50.620;7.232;2022-08-03T10:26:51;1.70;;;1.60;;
20173;SDS011;10246;50.620;7.232;2022-08-03T10:29:21;3.33;;;1.60;;
20173;SDS011;10246;50.620;7.232;2022-08-03T10:31:55;3.13;;;1.80;;
20173;SDS011;10246;50.620;7.232;2022-08-03T10:34:25;2.78;;;1.60;;
20173;SDS011;10246;50.620;7.232;2022-08-03T10:36:55;1.67;;;1.55;;
20173;SDS011;10246;50.620;7.232;2022-08-03T10:39:26;1.38;;;1.25;;
20173;SDS011;10246;50.620;7.232;2022-08-03T10:41:54;1.63;;;1.50;;
20173;SDS011;10246;50.620;7.232;2022-08-03T10:44:23;2.17;;;1.70;;
20173;SDS011;10246;50.620;7.232;2022-08-03T10:46:54;2.28;;;1.60;;
20173;SDS011;10246;50.620;7.232;2022-08-03T10:49:21;3.47;;;1.55;;
20173;SDS011;10246;50.620;7.232;2022-08-03T10:51:49;2.10;;;1.33;;
20173;SDS011;10246;50.620;7.232;2022-08-03T10:54:36;1.95;;;1.60;;
20173;SDS011;10246;50.620;7.232;2022-08-03T10:57:45;1.70;;;1.55;;
20173;SDS011;10246;50.620;7.232;2022-08-03T11:00:15;4.82;;;1.80;;
20173;SDS011;10246;50.620;7.232;2022-08-03T11:05:36;2.08;;;1.50;;
20173;SDS011;10246;50.620;7.232;2022-08-03T11:08:18;1.77;;;1.58;;
20173;SDS011;10246;50.620;7.232;2022-08-03T11:10:53;1.70;;;1.48;;
20173;SDS011;10246;50.620;7.232;2022-08-03T11:13:23;2.45;;;1.50;;
20173;SDS011;10246;50.620;7.232;2022-08-03T11:15:54;4.00;;;1.60;;
20173;SDS011;10246;50.620;7.232;2022-08-03T11:18:23;3.42;;;1.33;;
20173;SDS011;10246;50.620;7.232;2022-08-03T11:20:51;2.00;;;1.38;;
20173;SDS011;10246;50.620;7.232;2022-08-03T11:23:19;3.45;;;1.65;;
20173;SDS011;10246;50.620;7.232;2022-08-03T11:26:11;3.78;;;1.40;;
20173;SDS011;10246;50.620;7.232;2022-08-03T11:28:38;1.50;;;1.40;;
20173;SDS011;10246;50.620;7.232;2022-08-03T11:34:13;1.70;;;1.60;;
20173;SDS011;10246;50.620;7.232;2022-08-03T11:39:47;2.25;;;1.48;;
20173;SDS011;10246;50.620;7.232;2022-08-03T11:45:05;1.98;;;1.40;;
20173;SDS011;10246;50.620;7.232;2022-08-03T11:47:37;2.67;;;1.65;;
20173;SDS011;10246;50.620;7.232;2022-08-03T11:50:05;1.65;;;1.40;;
20173;SDS011;10246;50.620;7.232;2022-08-03T11:52:33;4.47;;;1.30;;
20173;SDS011;10246;50.620;7.232;2022-08-03T11:55:01;1.40;;;1.30;;
20173;SDS011;10246;50.620;7.232;2022-08-03T11:57:37;2.42;;;1.42;;
20173;SDS011;10246;50.620;7.232;2022-08-03T12:02:55;1.55;;;1.33;;
20173;SDS011;10246;50.620;7.232;2022-08-03T12:05:34;3.35;;;1.60;;
20173;SDS011;10246;50.620;7.232;2022-08-03T12:08:02;2.28;;;1.58;;
20173;SDS011;10246;50.620;7.232;2022-08-03T12:10:29;4.28;;;1.50;;
20173;SDS011;10246;50.620;7.232;2022-08-03T12:12:56;2.67;;;1.55;;
20173;SDS011;10246;50.620;7.232;2022-08-03T12:15:24;1.60;;;1.50;;
20173;SDS011;10246;50.620;7.232;2022-08-03T12:17:52;2.00;;;1.50;;
20173;SDS011;10246;50.620;7.232;2022-08-03T12:20:21;1.65;;;1.50;;
20173;SDS011;10246;50.620;7.232;2022-08-03T12:22:50;1.80;;;1.52;;
20173;SDS011;10246;50.620;7.232;2022-08-03T12:25:20;2.60;;;1.40;;
20173;SDS011;10246;50.620;7.232;2022-08-03T12:27:49;1.85;;;1.50;;
20173;SDS011;10246;50.620;7.232;2022-08-03T12:30:16;1.20;;;1.10;;
20173;SDS011;10246;50.620;7.232;2022-08-03T12:32:43;2.58;;;1.33;;
20173;SDS011;10246;50.620;7.232;2022-08-03T12:35:21;2.70;;;1.70;;
20173;SDS011;10246;50.620;7.232;2022-08-03T12:37:49;1.55;;;1.25;;
20173;SDS011;10246;50.620;7.232;2022-08-03T12:40:23;4.85;;;1.70;;
20173;SDS011;10246;50.620;7.232;2022-08-03T12:42:51;1.80;;;1.58;;
20173;SDS011;10246;50.620;7.232;2022-08-03T12:45:18;2.50;;;1.75;;
20173;SDS011;10246;50.620;7.232;2022-08-03T12:47:50;4.10;;;1.33;;
20173;SDS011;10246;50.620;7.232;2022-08-03T12:50:26;3.45;;;1.40;;
20173;SDS011;10246;50.620;7.232;2022-08-03T12:52:53;2.00;;;1.35;;
20173;SDS011;10246;50.620;7.232;2022-08-03T12:55:21;1.60;;;1.50;;
20173;SDS011;10246;50.620;7.232;2022-08-03T12:57:48;3.95;;;1.20;;
20173;SDS011;10246;50.620;7.232;2022-08-03T13:00:16;1.40;;;1.27;;
20173;SDS011;10246;50.620;7.232;2022-08-03T13:02:43;1.70;;;1.52;;
20173;SDS011;10246;50.620;7.232;2022-08-03T13:05:11;1.95;;;1.70;;
20173;SDS011;10246;50.620;7.232;2022-08-03T13:07:41;2.00;;;1.40;;
20173;SDS011;10246;50.620;7.232;2022-08-03T13:10:10;2.05;;;1.73;;
20173;SDS011;10246;50.620;7.232;2022-08-03T13:12:47;1.70;;;1.60;;
20173;SDS011;10246;50.620;7.232;2022-08-03T13:15:14;2.28;;;1.52;;
20173;SDS011;10246;50.620;7.232;2022-08-03T13:17:41;2.42;;;1.60;;
20173;SDS011;10246;50.620;7.232;2022-08-03T13:20:08;1.90;;;1.60;;
20173;SDS011;10246;50.620;7.232;2022-08-03T13:22:35;2.72;;;1.40;;
20173;SDS011;10246;50.620;7.232;2022-08-03T13:25:04;3.75;;;1.30;;
20173;SDS011;10246;50.620;7.232;2022-08-03T13:27:31;1.33;;;1.23;;
20173;SDS011;10246;50.620;7.232;2022-08-03T13:29:58;3.95;;;1.60;;
20173;SDS011;10246;50.620;7.232;2022-08-03T13:32:24;1.75;;;1.20;;
20173;SDS011;10246;50.620;7.232;2022-08-03T13:34:51;1.40;;;1.30;;
20173;SDS011;10246;50.620;7.232;2022-08-03T13:37:18;2.75;;;1.33;;
20173;SDS011;10246;50.620;7.232;2022-08-03T13:39:45;2.33;;;1.17;;
20173;SDS011;10246;50.620;7.232;2022-08-03T13:42:13;1.42;;;1.20;;
20173;SDS011;10246;50.620;7.232;2022-08-03T13:44:39;3.75;;;1.30;;
20173;SDS011;10246;50.620;7.232;2022-08-03T13:47:06;2.65;;;1.50;;
20173;SDS011;10246;50.620;7.232;2022-08-03T13:49:33;3.35;;;1.23;;
20173;SDS011;10246;50.620;7.232;2022-08-03T13:52:00;2.00;;;1.58;;
20173;SDS011;10246;50.620;7.232;2022-08-03T13:54:27;1.58;;;1.20;;
20173;SDS011;10246;50.620;7.232;2022-08-03T13:56:54;1.48;;;1.38;;
20173;SDS011;10246;50.620;7.232;2022-08-03T13:59:23;2.53;;;1.25;;
20173;SDS011;10246;50.620;7.232;2022-08-03T14:01:51;1.73;;;1.45;;
20173;SDS011;10246;50.620;7.232;2022-08-03T14:04:18;2.40;;;1.38;;
20173;SDS011;10246;50.620;7.232;2022-08-03T14:06:45;3.28;;;1.50;;
20173;SDS011;10246;50.620;7.232;2022-08-03T14:09:13;1.60;;;1.50;;
20173;SDS011;10246;50.620;7.232;2022-08-03T14:11:41;1.55;;;1.40;;
20173;SDS011;10246;50.620;7.232;2022-08-03T14:14:08;1.60;;;1.50;;
20173;SDS011;10246;50.620;7.232;2022-08-03T14:16:36;1.42;;;1.33;;
20173;SDS011;10246;50.620;7.232;2022-08-03T14:19:03;2.40;;;1.55;;
20173;SDS011;10246;50.620;7.232;2022-08-03T14:21:31;2.00;;;1.60;;
20173;SDS011;10246;50.620;7.232;2022-08-03T14:23:59;2.30;;;1.55;;
20173;SDS011;10246;50.620;7.232;2022-08-03T14:26:25;2.33;;;1.25;;
20173;SDS011;10246;50.620;7.232;2022-08-03T14:28:52;2.78;;;1.35;;
20173;SDS011;10246;50.620;7.232;2022-08-03T14:31:19;1.40;;;1.30;;
20173;SDS011;10246;50.620;7.232;2022-08-03T14:33:49;1.70;;;1.20;;
20173;SDS011;10246;50.620;7.232;2022-08-03T14:36:15;1.60;;;1.50;;
20173;SDS011;10246;50.620;7.232;2022-08-03T14:38:42;1.42;;;1.33;;
20173;SDS011;10246;50.620;7.232;2022-08-03T14:41:09;2.35;;;1.33;;
20173;SDS011;10246;50.620;7.232;2022-08-03T14:43:36;1.50;;;1.17;;
20173;SDS011;10246;50.620;7.232;2022-08-03T14:46:02;4.45;;;1.27;;
20173;SDS011;10246;50.620;7.232;2022-08-03T14:48:30;2.92;;;1.70;;
20173;SDS011;10246;50.620;7.232;2022-08-03T14:50:59;1.50;;;1.25;;
20173;SDS011;10246;50.620;7.232;2022-08-03T14:53:25;8.15;;;1.63;;
20173;SDS011;10246;50.620;7.232;2022-08-03T14:55:52;2.63;;;1.48;;
20173;SDS011;10246;50.620;7.232;2022-08-03T14:58:19;2.20;;;1.38;;
20173;SDS011;10246;50.620;7.232;2022-08-03T15:00:47;2.20;;;1.50;;
20173;SDS011;10246;50.620;7.232;2022-08-03T15:03:15;2.00;;;1.42;;
20173;SDS011;10246;50.620;7.232;2022-08-03T15:05:44;1.60;;;1.50;;
20173;SDS011;10246;50.620;7.232;2022-08-03T15:08:12;3.05;;;1.65;;
20173;SDS011;10246;50.620;7.232;2022-08-03T15:10:38;1.55;;;1.45;;
20173;SDS011;10246;50.620;7.232;2022-08-03T15:13:05;1.85;;;1.20;;